createdAt,value
2022-10-23T00:03:15.988Z,16.765886287625417
2022-10-23T00:17:02.957Z,17.63545150501672
2022-10-23T00:23:39.242Z,16.668896321070235
2022-10-23T00:32:35.678Z,16.682274247491637
2022-10-23T00:39:03.298Z,17.37458193979933
2022-10-23T00:45:30.573Z,17.354515050167223
2022-10-23T00:51:58.194Z,17.294314381270905
2022-10-23T00:58:26.390Z,16.54180602006689
2022-10-23T01:04:54.164Z,16.277591973244146
2022-10-23T01:11:21.231Z,16.03010033444816
2022-10-23T01:17:49.431Z,17.381270903010034
2022-10-23T01:24:26.015Z,17.67558528428094
2022-10-23T01:30:53.718Z,16.00334448160535
2022-10-23T01:37:21.268Z,16.05016722408027
2022-10-23T01:43:49.260Z,15.521739130434783
2022-10-23T01:54:15.483Z,15.869565217391305
2022-10-23T02:00:43.039Z,14.37458193979933
2022-10-23T02:07:10.457Z,14.605351170568563
2022-10-23T02:13:38.062Z,15.498327759197325
2022-10-23T02:24:06.113Z,15.698996655518394
2022-10-23T02:36:29.907Z,16.668896321070235
2022-10-23T02:42:58.016Z,16.565217391304348
2022-10-23T02:49:25.084Z,16.82943143812709
2022-10-23T02:55:52.853Z,17.54180602006689
2022-10-23T03:02:19.945Z,17.270903010033443
2022-10-23T03:09:11.603Z,18.153846153846153
2022-10-23T03:15:39.107Z,17.06354515050167
2022-10-23T03:25:32.427Z,17.464882943143813
2022-10-23T03:31:59.873Z,16.32441471571906
2022-10-23T03:38:27.232Z,17.361204013377925
2022-10-23T03:44:54.403Z,17.17725752508361
2022-10-23T03:51:22.511Z,18.006688963210703
2022-10-23T04:02:57.115Z,18.043478260869566
2022-10-23T04:09:23.869Z,18.327759197324415
2022-10-23T04:19:20.360Z,19.307692307692307
2022-10-23T04:25:57.201Z,18.48494983277592
2022-10-23T04:32:24.405Z,18.22742474916388
2022-10-23T04:54:55.975Z,16.963210702341136
2022-10-23T05:06:42.627Z,15.993311036789297
2022-10-23T05:13:09.797Z,15.752508361204013
2022-10-23T05:19:36.816Z,14.792642140468228
2022-10-23T05:26:13.906Z,15.54180602006689
2022-10-23T05:46:57.570Z,14.57190635451505
2022-10-23T05:53:24.948Z,14.76923076923077
2022-10-23T05:59:52.022Z,13.494983277591974
2022-10-23T06:06:19.613Z,13.040133779264215
2022-10-23T06:12:47.053Z,13.438127090301004
2022-10-23T06:22:09.840Z,12.066889632107024
2022-10-23T06:29:03.599Z,11.876254180602007
2022-10-23T06:40:22.131Z,13.789297658862877
2022-10-23T06:49:38.926Z,14.642140468227424
2022-10-23T06:56:10.559Z,14.976588628762542
2022-10-23T07:02:43.716Z,12.735785953177258
2022-10-23T07:09:13.704Z,11.347826086956522
2022-10-23T07:15:43.398Z,10.20401337792642
2022-10-23T07:35:44.958Z,11.491638795986622
2022-10-23T07:42:20.221Z,10.461538461538462
2022-10-23T07:54:23.373Z,10.438127090301004
2022-10-23T08:01:00.898Z,11.187290969899665
2022-10-23T08:07:36.309Z,10.846153846153847
2022-10-23T08:14:07.957Z,10.45819397993311
2022-10-23T08:20:49.793Z,9.735785953177258
2022-10-23T08:27:20.361Z,9.7123745819398
2022-10-23T08:33:54.863Z,9.658862876254181
2022-10-23T08:40:33.861Z,9.408026755852843
2022-10-23T08:47:21.995Z,8.996655518394649
2022-10-23T08:53:52.157Z,8.702341137123746
2022-10-23T09:02:24.377Z,9.163879598662207
2022-10-23T09:08:57.031Z,9.163879598662207
2022-10-23T09:16:06.413Z,9.040133779264215
2022-10-23T09:22:42.272Z,8.321070234113712
2022-10-23T09:29:17.041Z,9.240802675585284
2022-10-23T09:35:47.091Z,8.882943143812708
2022-10-23T09:42:17.160Z,8.347826086956522
2022-10-23T09:49:45.275Z,7.882943143812709
2022-10-23T09:56:13.764Z,8.270903010033445
2022-10-23T10:12:59.938Z,7.826086956521739
2022-10-23T10:19:27.523Z,8.658862876254181
2022-10-23T10:26:00.840Z,8.394648829431437
2022-10-23T10:32:28.628Z,8.474916387959865
2022-10-23T10:38:56.126Z,8.832775919732441
2022-10-23T10:45:22.993Z,8.618729096989966
2022-10-23T10:51:51.267Z,7.966555183946488
2022-10-23T10:58:18.812Z,7.528428093645485
2022-10-23T11:04:47.551Z,7.421404682274248
2022-10-23T11:11:42.359Z,8.036789297658864
2022-10-23T11:18:10.592Z,7.508361204013378
2022-10-23T11:24:48.206Z,7.775919732441472
2022-10-23T11:36:25.335Z,8.384615384615385
2022-10-23T11:42:54.265Z,7.923076923076923
2022-10-23T11:49:22.176Z,7.591973244147157
2022-10-23T11:59:55.775Z,7.889632107023411
2022-10-23T12:19:27.867Z,6.879598662207358
2022-10-23T12:26:05.982Z,7.150501672240803
2022-10-23T12:38:24.700Z,7.080267558528428
2022-10-23T12:44:52.960Z,5.37123745819398
2022-10-23T12:51:20.461Z,5.842809364548495
2022-10-23T12:57:49.693Z,6.010033444816053
2022-10-23T13:16:58.772Z,5.2040133779264215
2022-10-23T13:25:06.513Z,5.88628762541806
2022-10-23T13:36:35.777Z,5.525083612040134
2022-10-23T13:43:04.108Z,5.1237458193979935
2022-10-23T13:49:33.003Z,5.632107023411371
2022-10-23T13:56:01.428Z,4.157190635451505
2022-10-23T14:02:35.573Z,4.130434782608695
2022-10-23T14:10:54.702Z,4.076923076923077
2022-10-23T14:17:23.720Z,4.173913043478261
2022-10-23T14:23:54.019Z,3.765886287625418
2022-10-23T14:30:22.910Z,2.9765886287625416
2022-10-23T14:37:03.503Z,3.648829431438127
2022-10-23T14:43:41.146Z,3.130434782608696
2022-10-23T14:50:10.022Z,2.254180602006689
2022-10-23T15:03:13.217Z,2.1137123745819397
2022-10-23T15:10:02.060Z,2.849498327759197
2022-10-23T15:22:27.711Z,2.698996655518395
2022-10-23T15:28:57.097Z,2.137123745819398
2022-10-23T15:35:25.139Z,2.68561872909699
2022-10-23T15:41:55.762Z,2.6555183946488294
2022-10-23T15:48:32.233Z,2.882943143812709
2022-10-23T15:55:01.549Z,2.9899665551839463
2022-10-23T16:04:32.655Z,3.1337792642140467
2022-10-23T16:11:04.020Z,3.3076923076923075
2022-10-23T16:17:49.206Z,3.210702341137124
2022-10-23T16:24:50.615Z,2.722408026755853
2022-10-23T16:31:20.503Z,2.8528428093645486
2022-10-23T16:42:42.990Z,2.8361204013377925
2022-10-23T16:49:30.353Z,3.6655518394648827
2022-10-23T16:56:01.921Z,2.9130434782608696
2022-10-23T17:02:29.909Z,2.849498327759197
2022-10-23T17:08:59.095Z,2.5785953177257523
2022-10-23T17:19:45.508Z,5.066889632107023
2022-10-23T17:30:07.177Z,8.006688963210703
2022-10-23T17:36:46.688Z,5.966555183946488
2022-10-23T17:43:17.049Z,8.54180602006689
2022-10-23T17:55:52.629Z,12.454849498327759
2022-10-23T18:02:21.842Z,7.3244147157190636
2022-10-23T18:14:04.249Z,5.7959866220735785
2022-10-23T18:20:45.059Z,4.374581939799331
2022-10-23T18:27:30.177Z,3.9464882943143813
2022-10-23T18:36:40.365Z,4.130434782608695
2022-10-23T18:43:15.254Z,4.929765886287625
2022-10-23T18:52:56.535Z,4.65886287625418
2022-10-23T18:59:37.672Z,4.046822742474917
2022-10-23T19:06:07.142Z,3.5953177257525084
2022-10-23T19:12:35.904Z,4.595317725752508
2022-10-23T19:26:15.030Z,3.9698996655518393
2022-10-23T19:32:47.609Z,3.117056856187291
2022-10-23T19:39:23.249Z,3.0702341137123748
2022-10-23T19:45:57.456Z,2.3645484949832776
2022-10-23T19:52:48.337Z,2.4983277591973243
2022-10-23T20:03:20.438Z,2.160535117056856
2022-10-23T20:13:38.460Z,1.785953177257525
2022-10-23T20:20:15.701Z,2.3946488294314383
2022-10-23T20:26:46.106Z,1.7123745819397993
2022-10-23T20:35:12.942Z,2.4046822742474916
2022-10-23T20:41:44.408Z,2.137123745819398
2022-10-23T20:54:01.724Z,1.5986622073578596
2022-10-23T21:00:34.349Z,1.5986622073578596
2022-10-23T21:07:09.925Z,1.4247491638795986
2022-10-23T21:19:24.233Z,1.451505016722408
2022-10-23T21:26:18.763Z,2.160535117056856
2022-10-23T21:32:59.588Z,1.3846153846153846
2022-10-23T21:48:12.556Z,1.6521739130434783
2022-10-23T21:54:50.914Z,1.9096989966555185
2022-10-23T22:01:42.901Z,1.7826086956521738
2022-10-23T22:12:25.689Z,1.8227424749163879
2022-10-23T22:18:57.602Z,1.8862876254180603
2022-10-23T22:26:22.701Z,2.0133779264214047
2022-10-23T22:33:54.631Z,2.1237458193979935
2022-10-23T22:41:48.660Z,2.37123745819398
2022-10-23T22:49:35.442Z,2.1070234113712374
2022-10-23T23:00:48.339Z,2.17056856187291
2022-10-23T23:08:51.461Z,1.9163879598662208
2022-10-23T23:23:44.798Z,1.6956521739130435
2022-10-23T23:31:49.550Z,1.7491638795986622
2022-10-23T23:39:24.161Z,1.6521739130434783
2022-10-23T23:50:40.283Z,1.842809364548495
2022-10-23T23:59:27.261Z,1.8093645484949832
